AKDT,Max TemperatureF,Mean TemperatureF,Min TemperatureF,Max Dew PointF,MeanDew PointF,Min DewpointF,Max Humidity, Mean Humidity, Min Humidity, Max Sea Level PressureIn, Mean Sea Level PressureIn, Min Sea Level PressureIn, Max VisibilityMiles, Mean VisibilityMiles, Min VisibilityMiles, Max Wind SpeedMPH, Mean Wind SpeedMPH, Max Gust SpeedMPH,PrecipitationIn, CloudCover, Events, WindDirDegrees
2012-4-1,45,36,27,26,22,19,81,63,42,29.68,29.64,29.60,10,10,9,15,3,,0.00,0,,205
2012-4-2,46,37,28,29,21,12,72,53,29,29.67,29.45,29.36,10,10,10,24,7,34,0.00,3,,30
2012-4-3,48,42,36,34,29,25,76,60,40,29.79,29.57,29.44,10,9,2,17,7,20,0.00,7,,71
2012-4-4,46,40,34,33,31,28,87,70,52,30.20,30.00,29.81,10,9,2,21,5,,0.00,5,,192
2012-4-5,46,38,30,33,29,26,89,75,52,30.29,30.25,30.21,10,10,9,12,2,,0.00,4,,217
2012-4-6,46,36,28,32,27,24,88,72,56,30.32,30.25,30.22,10,10,9,18,4,,0.00,0,,224
2012-4-7,46,37,28,33,28,25,89,73,50,30.40,30.38,30.33,10,10,10,17,3,,0.00,0,,215
2012-4-8,48,37,28,32,28,25,89,71,46,30.41,30.31,30.20,10,10,10,14,2,,0.00,0,,222
2012-4-9,46,37,28,35,28,25,89,69,46,30.20,30.09,30.01,10,10,10,6,2,,0.00,0,,235
2012-4-10,61,45,30,34,27,21,88,58,23,30.00,29.84,29.73,10,10,10,18,5,28,0.00,2,,42
2012-4-11,59,47,37,34,32,30,76,57,39,29.75,29.74,29.71,10,10,10,16,3,17,0.00,7,,40
2012-4-12,63,50,39,34,31,29,79,49,29,29.82,29.76,29.73,10,10,10,18,6,26,0.00,6,,31
2012-4-13,52,44,39,40,35,33,82,72,61,29.95,29.91,29.84,10,10,10,10,2,,0.00,8,,244
2012-4-14,54,45,39,42,38,34,96,82,52,30.06,30.00,29.95,10,10,10,14,2,,0.01,8,Rain,218
2012-4-15,51,45,39,41,37,33,96,81,54,30.06,30.01,29.94,10,10,9,9,1,,0.02,8,Rain,226
2012-4-16,61,48,36,34,31,26,86,56,26,29.93,29.79,29.71,10,10,10,17,3,25,0.00,6,,35
2012-4-17,52,44,37,38,33,29,76,65,50,29.94,29.88,29.77,10,10,10,18,7,26,0.00,5,,212
2012-4-18,55,44,32,34,31,25,85,63,33,29.87,29.77,29.71,10,10,10,15,3,21,0.00,1,,167
2012-4-19,50,44,37,40,35,32,82,73,58,29.83,29.72,29.51,10,10,5,7,2,,0.08,5,Rain,230
2012-4-20,54,47,42,39,36,34,82,72,53,30.02,29.70,29.52,10,10,6,34,10,47,0.04,7,Rain,211
2012-4-21,48,44,41,37,35,32,86,72,58,30.15,30.11,30.04,10,10,6,21,14,26,0.01,7,Rain,205
2012-4-22,50,42,34,37,33,30,93,73,46,30.15,30.05,30.00,10,10,10,16,3,,0.00,2,,209
2012-4-23,48,39,30,35,31,28,89,72,50,30.01,29.92,29.85,10,10,10,18,5,,0.01,3,,208
2012-4-24,54,46,37,36,30,21,89,62,28,29.88,29.78,29.69,10,10,10,9,3,17,0.00,5,Rain,203
2012-4-25,59,50,42,29,27,24,58,37,30,29.68,29.64,29.58,10,10,10,18,11,26,0.00,5,,27
2012-4-26,53,48,41,40,33,25,93,61,36,29.72,29.64,29.59,10,10,10,17,10,23,0.03,7,Rain,28
2012-4-27,50,44,41,40,37,33,96,78,54,29.87,29.76,29.73,10,10,10,23,6,31,0.00,7,Rain,207
2012-4-28,51,46,42,38,34,30,82,64,44,29.94,29.92,29.89,10,10,10,21,16,30,0.00,7,,202
2012-4-29,45,42,39,37,36,36,86,78,71,29.94,29.82,29.73,10,10,9,25,17,34,0.01,7,Rain,205
2012-4-30,48,42,37,41,38,36,93,87,66,29.73,29.61,29.52,10,10,9,16,3,,0.03,7,Rain,208